createdAt,value
2023-03-06T00:00:21.784Z,81.28
2023-03-06T00:02:48.582Z,81.96
2023-03-06T00:05:16.120Z,82.31
2023-03-06T00:07:43.882Z,82.45
2023-03-06T00:10:16.279Z,81.93
2023-03-06T00:12:42.898Z,81.61
2023-03-06T00:15:10.744Z,82.10
2023-03-06T00:17:37.873Z,83.46
2023-03-06T00:20:05.892Z,82.60
2023-03-06T00:22:32.982Z,82.34
2023-03-06T00:24:59.785Z,82.55
2023-03-06T00:27:26.441Z,83.17
2023-03-06T00:29:57.656Z,83.44
2023-03-06T00:32:25.368Z,83.80
2023-03-06T00:34:53.620Z,83.19
2023-03-06T00:37:21.858Z,83.21
2023-03-06T00:39:49.618Z,83.45
2023-03-06T00:42:18.015Z,84.79
2023-03-06T00:44:45.249Z,85.79
2023-03-06T00:47:13.087Z,85.24
2023-03-06T00:49:39.652Z,85.19
2023-03-06T00:52:06.251Z,85.40
2023-03-06T00:54:32.845Z,85.24
2023-03-06T00:56:59.422Z,85.37
2023-03-06T00:59:27.605Z,85.31
2023-03-06T01:01:54.818Z,85.09
2023-03-06T01:04:21.632Z,84.79
2023-03-06T01:06:48.901Z,83.85
2023-03-06T01:09:15.554Z,83.06
2023-03-06T01:11:42.121Z,82.69
2023-03-06T01:14:08.760Z,83.18
2023-03-06T01:16:35.387Z,83.87
2023-03-06T01:19:02.146Z,84.06
2023-03-06T01:21:28.878Z,84.73
2023-03-06T01:23:55.494Z,84.89
2023-03-06T01:26:22.115Z,85.63
2023-03-06T01:28:48.771Z,86.61
2023-03-06T01:31:15.413Z,86.15
2023-03-06T01:33:42.026Z,85.71
2023-03-06T01:36:12.224Z,85.90
2023-03-06T01:38:39.173Z,85.62
2023-03-06T01:41:06.693Z,87.04
2023-03-06T01:43:36.700Z,87.16
2023-03-06T01:46:22.769Z,86.26
2023-03-06T01:48:53.670Z,86.39
2023-03-06T01:51:20.824Z,85.83
2023-03-06T01:53:50.496Z,84.98
2023-03-06T01:56:17.213Z,84.91
2023-03-06T01:58:44.780Z,84.31
2023-03-06T02:01:13.464Z,84.90
2023-03-06T02:03:42.284Z,85.51
2023-03-06T02:06:09.003Z,85.43
2023-03-06T02:08:35.788Z,84.88
2023-03-06T02:11:07.901Z,85.03
2023-03-06T02:13:36.396Z,85.38
2023-03-06T02:16:03.442Z,85.19
2023-03-06T02:18:31.758Z,84.41
2023-03-06T02:21:02.392Z,85.48
2023-03-06T02:23:34.028Z,86.01
2023-03-06T02:26:02.230Z,85.71
2023-03-06T02:28:29.003Z,85.75
2023-03-06T02:30:56.082Z,86.05
2023-03-06T02:33:27.132Z,86.28
2023-03-06T02:35:58.626Z,86.42
2023-03-06T02:38:29.250Z,86.01
2023-03-06T02:40:58.132Z,86.12
2023-03-06T02:43:29.522Z,85.90
2023-03-06T02:45:56.205Z,86.11
2023-03-06T02:48:22.861Z,87.76
2023-03-06T02:50:49.534Z,87.62
2023-03-06T02:53:18.122Z,88.58
2023-03-06T02:55:45.458Z,88.23
2023-03-06T02:58:12.650Z,88.18
2023-03-06T03:00:40.294Z,87.92
2023-03-06T03:03:07.557Z,87.79
2023-03-06T03:05:34.196Z,87.74
2023-03-06T03:08:01.064Z,86.98
2023-03-06T03:10:27.691Z,87.55
2023-03-06T03:12:54.300Z,87.29
2023-03-06T03:15:24.149Z,87.99
2023-03-06T03:17:50.974Z,87.65
2023-03-06T03:20:20.195Z,87.17
2023-03-06T03:22:52.316Z,86.50
2023-03-06T03:25:21.789Z,86.13
2023-03-06T03:27:48.717Z,85.78
2023-03-06T03:30:15.974Z,86.51
2023-03-06T03:32:42.578Z,86.71
2023-03-06T03:35:11.181Z,86.52
2023-03-06T03:37:38.135Z,87.39
2023-03-06T03:40:06.850Z,87.06
2023-03-06T03:42:34.552Z,87.20
2023-03-06T03:45:01.134Z,87.92
2023-03-06T03:47:27.809Z,88.80
2023-03-06T03:49:54.385Z,89.10
2023-03-06T03:52:21.076Z,88.87
2023-03-06T03:54:47.662Z,87.72
2023-03-06T03:57:14.257Z,87.80
2023-03-06T03:59:40.889Z,88.38
2023-03-06T04:02:07.528Z,88.13
2023-03-06T04:04:34.183Z,88.33
2023-03-06T04:07:00.842Z,88.37
2023-03-06T04:09:27.625Z,88.64
2023-03-06T04:11:54.296Z,88.96
2023-03-06T04:14:20.914Z,89.07
2023-03-06T04:16:47.607Z,88.35
2023-03-06T04:19:14.225Z,89.63
2023-03-06T04:21:40.802Z,88.89
2023-03-06T04:24:07.966Z,88.21
2023-03-06T04:26:37.837Z,88.63
2023-03-06T04:29:04.458Z,89.03
2023-03-06T04:31:31.138Z,88.78
2023-03-06T04:33:57.756Z,88.66
2023-03-06T04:36:30.884Z,88.20
2023-03-06T04:38:58.067Z,87.95
2023-03-06T04:41:24.747Z,88.06
2023-03-06T04:43:51.843Z,87.31
2023-03-06T04:46:18.540Z,87.07
2023-03-06T04:48:45.184Z,86.90
2023-03-06T04:51:13.582Z,87.37
2023-03-06T04:53:40.307Z,87.52
2023-03-06T04:56:07.304Z,86.64
2023-03-06T04:58:33.929Z,85.96
2023-03-06T05:01:00.600Z,85.65
2023-03-06T05:03:27.358Z,86.02
2023-03-06T05:05:53.978Z,86.34
2023-03-06T05:08:21.190Z,86.18
2023-03-06T05:10:54.817Z,86.73
2023-03-06T05:13:21.562Z,87.24
2023-03-06T05:15:48.174Z,86.47
2023-03-06T05:18:14.805Z,87.31
2023-03-06T05:20:41.404Z,87.64
2023-03-06T05:23:08.081Z,87.21
2023-03-06T05:25:34.695Z,87.06
2023-03-06T05:28:01.314Z,87.35
2023-03-06T05:30:27.954Z,87.66
2023-03-06T05:32:54.640Z,88.12
2023-03-06T05:35:23.328Z,87.72
2023-03-06T05:37:50.294Z,88.13
2023-03-06T05:40:18.176Z,88.54
2023-03-06T05:42:45.268Z,88.17
2023-03-06T05:45:12.120Z,88.07
2023-03-06T05:47:38.693Z,87.62
2023-03-06T05:50:08.040Z,88.32
2023-03-06T05:52:34.657Z,88.94
2023-03-06T05:55:01.293Z,89.24
2023-03-06T05:57:27.914Z,89.91
2023-03-06T05:59:54.650Z,89.67
2023-03-06T06:02:21.455Z,89.29
2023-03-06T06:04:48.286Z,89.64
2023-03-06T06:07:17.032Z,89.25
2023-03-06T06:09:45.592Z,89.55
2023-03-06T06:12:13.291Z,90.14
2023-03-06T06:14:39.998Z,90.72
2023-03-06T06:17:07.105Z,90.48
2023-03-06T06:19:33.767Z,90.56
2023-03-06T06:22:02.649Z,90.55
2023-03-06T06:24:29.853Z,90.97
2023-03-06T06:26:58.129Z,90.19
2023-03-06T06:29:26.122Z,90.58
2023-03-06T06:31:53.134Z,91.12
2023-03-06T06:34:20.343Z,91.29
2023-03-06T06:36:47.447Z,91.55
2023-03-06T06:39:16.515Z,91.56
2023-03-06T06:41:57.575Z,91.14
2023-03-06T06:44:29.124Z,90.09
2023-03-06T06:49:42.319Z,88.91
2023-03-06T06:52:09.100Z,87.53
2023-03-06T06:54:35.725Z,87.43
2023-03-06T06:57:02.316Z,86.73
2023-03-06T06:59:28.905Z,85.01
2023-03-06T07:01:55.475Z,83.40
2023-03-06T07:04:22.244Z,83.40
2023-03-06T07:06:48.835Z,83.78
2023-03-06T07:09:15.401Z,83.81
2023-03-06T07:11:42.003Z,83.99
2023-03-06T07:14:09.024Z,84.10
2023-03-06T07:16:38.859Z,83.91
2023-03-06T07:19:06.304Z,82.04
2023-03-06T07:21:33.250Z,81.53
2023-03-06T07:24:00.816Z,81.76
2023-03-06T07:26:28.420Z,81.35
2023-03-06T07:28:55.438Z,81.85
2023-03-06T07:31:24.740Z,82.22
2023-03-06T07:33:52.689Z,81.12
2023-03-06T07:36:20.484Z,80.99
2023-03-06T07:38:47.245Z,81.29
2023-03-06T07:41:16.379Z,80.84
2023-03-06T07:43:44.992Z,80.76
2023-03-06T07:46:13.135Z,80.45
2023-03-06T07:48:40.525Z,80.47
2023-03-06T07:51:16.049Z,80.22
2023-03-06T07:53:42.668Z,80.59
2023-03-06T07:56:11.089Z,79.73
2023-03-06T07:58:39.468Z,79.63
2023-03-06T08:01:10.442Z,79.66
2023-03-06T08:03:37.615Z,78.78
2023-03-06T08:06:07.593Z,78.08
2023-03-06T08:08:35.535Z,78.16
2023-03-06T08:11:02.329Z,78.23
2023-03-06T08:13:28.982Z,77.24
2023-03-06T08:15:56.740Z,77.28
2023-03-06T08:18:23.431Z,76.85
2023-03-06T08:20:50.083Z,77.28
2023-03-06T08:23:16.692Z,77.37
2023-03-06T08:25:43.298Z,76.15
2023-03-06T08:28:13.098Z,75.60
2023-03-06T08:30:39.709Z,74.85
2023-03-06T08:33:06.298Z,75.54
2023-03-06T08:35:32.944Z,75.19
2023-03-06T08:37:59.585Z,75.59
2023-03-06T08:40:30.398Z,72.91
2023-03-06T08:42:56.990Z,73.17
2023-03-06T08:45:23.754Z,73.24
2023-03-06T08:47:50.369Z,72.66
2023-03-06T08:50:17.228Z,71.91
2023-03-06T08:52:43.835Z,71.33
2023-03-06T08:55:10.820Z,70.70
2023-03-06T08:57:37.411Z,71.04
2023-03-06T09:00:08.872Z,71.90
2023-03-06T09:02:35.665Z,71.13
2023-03-06T09:05:05.841Z,71.62
2023-03-06T09:07:32.453Z,69.99
2023-03-06T09:09:59.235Z,69.01
2023-03-06T09:12:27.241Z,68.44
2023-03-06T09:14:54.729Z,67.05
2023-03-06T09:17:21.361Z,66.85
2023-03-06T09:19:48.005Z,65.69
2023-03-06T09:22:14.582Z,66.42
2023-03-06T09:24:41.542Z,65.14
2023-03-06T09:27:08.144Z,67.25
2023-03-06T09:29:34.718Z,67.29
2023-03-06T09:32:01.324Z,67.82
2023-03-06T09:34:27.998Z,66.88
2023-03-06T09:36:57.200Z,65.70
2023-03-06T09:39:26.174Z,65.19
2023-03-06T09:41:53.906Z,65.41
2023-03-06T09:44:26.058Z,65.40
2023-03-06T09:47:19.655Z,66.24
2023-03-06T09:50:15.756Z,65.04
2023-03-06T09:53:15.396Z,66.08
2023-03-06T09:55:44.203Z,65.82
2023-03-06T09:58:21.131Z,65.68
2023-03-06T10:01:20.464Z,63.97
2023-03-06T10:03:52.939Z,63.18
2023-03-06T10:06:39.611Z,62.14
2023-03-06T10:09:13.548Z,62.08
2023-03-06T10:12:06.665Z,61.90
2023-03-06T10:14:48.462Z,63.04
2023-03-06T10:17:22.535Z,62.93
2023-03-06T10:19:49.840Z,62.75
2023-03-06T10:22:30.756Z,61.48
2023-03-06T10:25:28.104Z,61.01
2023-03-06T10:27:55.598Z,60.82
2023-03-06T10:30:23.185Z,60.39
2023-03-06T10:33:07.534Z,60.20
2023-03-06T10:35:51.721Z,61.07
2023-03-06T10:38:37.839Z,60.59
2023-03-06T10:41:16.942Z,61.04
2023-03-06T10:44:05.506Z,60.33
2023-03-06T10:46:36.414Z,61.48
2023-03-06T10:49:06.120Z,60.95
2023-03-06T10:51:34.272Z,60.00
2023-03-06T10:54:04.428Z,59.09
2023-03-06T10:56:35.099Z,59.85
2023-03-06T10:59:18.082Z,59.43
2023-03-06T11:01:47.616Z,61.44
2023-03-06T11:04:15.205Z,60.02
2023-03-06T11:06:42.076Z,60.17
2023-03-06T11:09:25.808Z,59.90
2023-03-06T11:12:08.894Z,61.38
2023-03-06T11:14:35.486Z,60.26
2023-03-06T11:17:05.359Z,60.65
2023-03-06T11:19:32.983Z,60.11
2023-03-06T11:22:02.801Z,60.69
2023-03-06T11:24:37.467Z,60.72
2023-03-06T11:27:22.254Z,62.09
2023-03-06T11:29:51.699Z,62.68
2023-03-06T11:32:22.544Z,62.72
2023-03-06T11:34:58.065Z,62.54
2023-03-06T11:37:33.735Z,62.13
2023-03-06T11:40:01.359Z,62.59
2023-03-06T11:42:38.245Z,62.08
2023-03-06T11:45:24.953Z,62.42
2023-03-06T11:48:20.105Z,62.36
2023-03-06T11:50:52.565Z,62.61
2023-03-06T11:53:23.118Z,62.76
2023-03-06T11:56:14.880Z,63.63
2023-03-06T11:58:58.147Z,62.15
2023-03-06T12:01:36.802Z,60.93
2023-03-06T12:04:23.357Z,60.67
2023-03-06T12:06:57.859Z,60.70
2023-03-06T12:09:36.090Z,59.32
2023-03-06T12:12:14.808Z,58.06
2023-03-06T12:14:56.787Z,60.95
2023-03-06T12:18:03.177Z,60.96
2023-03-06T12:20:31.798Z,61.25
2023-03-06T12:23:26.724Z,58.61
2023-03-06T12:26:21.184Z,57.63
2023-03-06T12:29:07.385Z,58.02
2023-03-06T12:32:09.344Z,56.75
2023-03-06T12:35:05.879Z,57.27
2023-03-06T12:38:02.339Z,57.83
2023-03-06T12:40:58.571Z,58.27
2023-03-06T12:43:40.351Z,58.89
2023-03-06T12:46:16.032Z,60.25
2023-03-06T12:48:48.793Z,61.18
2023-03-06T12:51:20.457Z,61.18
2023-03-06T12:53:49.910Z,61.10
2023-03-06T12:56:18.450Z,61.62
2023-03-06T12:58:51.010Z,60.70
2023-03-06T13:01:38.247Z,59.80
2023-03-06T13:04:35.522Z,60.57
2023-03-06T13:07:17.305Z,61.26
2023-03-06T13:09:59.149Z,60.70
2023-03-06T13:12:56.344Z,60.60
2023-03-06T13:15:41.286Z,61.07
2023-03-06T13:18:23.044Z,61.17
2023-03-06T13:20:51.679Z,60.74
2023-03-06T13:23:33.584Z,62.00
2023-03-06T13:26:08.609Z,63.00
2023-03-06T13:28:52.206Z,62.20
2023-03-06T13:31:34.156Z,61.35
2023-03-06T13:34:31.413Z,60.96
2023-03-06T13:37:33.368Z,60.89
2023-03-06T13:39:59.923Z,60.38
2023-03-06T13:42:28.978Z,60.76
2023-03-06T13:44:58.023Z,59.07
2023-03-06T13:47:26.622Z,59.35
2023-03-06T13:49:53.283Z,58.99
2023-03-06T13:52:38.221Z,59.07
2023-03-06T13:55:22.900Z,60.41
2023-03-06T13:57:59.992Z,59.56
2023-03-06T14:00:43.130Z,59.54
2023-03-06T14:03:10.781Z,59.70
2023-03-06T14:05:47.758Z,59.96
2023-03-06T14:08:19.368Z,60.15
2023-03-06T14:10:49.025Z,60.38
2023-03-06T14:13:23.656Z,59.14
2023-03-06T14:15:52.816Z,60.33
2023-03-06T14:18:23.781Z,60.17
2023-03-06T14:21:11.792Z,60.78
2023-03-06T14:23:44.918Z,60.67
2023-03-06T14:26:15.579Z,60.18
2023-03-06T14:28:45.258Z,60.14
2023-03-06T14:31:17.859Z,60.56
2023-03-06T14:33:54.706Z,60.07
2023-03-06T14:36:25.627Z,60.69
2023-03-06T14:38:59.285Z,60.58
2023-03-06T14:41:29.408Z,60.96
2023-03-06T14:44:20.534Z,61.04
2023-03-06T14:46:49.927Z,61.55
2023-03-06T14:49:19.047Z,62.20
2023-03-06T14:51:50.252Z,62.77
2023-03-06T14:54:26.441Z,62.67
2023-03-06T14:57:01.537Z,62.05
2023-03-06T14:59:31.166Z,62.63
2023-03-06T15:02:01.512Z,63.01
2023-03-06T15:04:36.604Z,62.23
2023-03-06T15:07:08.300Z,62.03
2023-03-06T15:09:37.219Z,62.94
2023-03-06T15:12:08.518Z,63.56
2023-03-06T15:14:38.774Z,63.87
2023-03-06T15:17:32.785Z,63.91
2023-03-06T15:20:00.674Z,64.24
2023-03-06T15:22:33.309Z,64.39
2023-03-06T15:25:16.199Z,64.55
2023-03-06T15:27:49.837Z,64.25
2023-03-06T15:30:26.689Z,64.42
2023-03-06T15:33:09.606Z,64.44
2023-03-06T15:35:38.236Z,65.07
2023-03-06T15:38:24.937Z,64.50
2023-03-06T15:40:57.204Z,65.23
2023-03-06T15:43:23.810Z,65.44
2023-03-06T15:45:53.339Z,65.88
2023-03-06T15:48:20.018Z,65.60
2023-03-06T15:50:46.735Z,65.52
2023-03-06T15:53:13.406Z,65.85
2023-03-06T15:55:40.187Z,65.70
2023-03-06T15:58:06.800Z,65.66
2023-03-06T16:00:36.840Z,65.57
2023-03-06T16:03:04.410Z,66.31
2023-03-06T16:05:31.520Z,65.15
2023-03-06T16:07:58.324Z,65.90
2023-03-06T16:10:29.001Z,65.45
2023-03-06T16:13:03.046Z,66.43
2023-03-06T16:15:33.158Z,66.16
2023-03-06T16:18:00.393Z,66.99
2023-03-06T16:20:28.530Z,66.82
2023-03-06T16:22:56.331Z,66.58
2023-03-06T16:25:25.468Z,67.03
2023-03-06T16:28:01.658Z,67.17
2023-03-06T16:30:34.328Z,67.32
2023-03-06T16:33:01.988Z,67.25
2023-03-06T16:35:28.861Z,68.03
2023-03-06T16:37:55.529Z,67.62
2023-03-06T16:40:25.517Z,67.82
2023-03-06T16:42:54.069Z,67.54
2023-03-06T16:45:23.037Z,67.95
2023-03-06T16:47:49.649Z,67.93
2023-03-06T16:50:33.226Z,69.04
2023-03-06T16:52:59.937Z,68.33
2023-03-06T16:55:27.907Z,68.04
2023-03-06T16:57:54.789Z,68.01
2023-03-06T17:00:24.600Z,68.42
2023-03-06T17:02:52.372Z,68.62
2023-03-06T17:05:19.947Z,68.19
2023-03-06T17:07:46.824Z,68.87
2023-03-06T17:10:16.091Z,68.53
2023-03-06T17:12:43.648Z,68.88
2023-03-06T17:15:11.439Z,68.93
2023-03-06T17:17:38.108Z,69.57
2023-03-06T17:20:08.097Z,69.00
2023-03-06T17:22:35.860Z,69.92
2023-03-06T17:25:03.577Z,69.66
2023-03-06T17:27:30.239Z,69.87
2023-03-06T17:29:57.982Z,70.35
2023-03-06T17:32:24.796Z,70.92
2023-03-06T17:34:51.449Z,70.67
2023-03-06T17:37:18.353Z,70.94
2023-03-06T17:39:45.045Z,71.04
2023-03-06T17:42:11.616Z,70.90
2023-03-06T17:44:38.892Z,71.07
2023-03-06T17:47:05.997Z,71.12
2023-03-06T17:49:32.600Z,70.56
2023-03-06T17:52:02.799Z,70.88
2023-03-06T17:54:30.179Z,70.83
2023-03-06T17:57:01.054Z,71.82
2023-03-06T17:59:28.301Z,72.77
2023-03-06T18:01:57.677Z,72.54
2023-03-06T18:04:24.767Z,72.62
2023-03-06T18:06:51.392Z,72.37
2023-03-06T18:09:18.240Z,73.04
2023-03-06T18:11:45.368Z,73.08
2023-03-06T18:14:12.025Z,73.64
2023-03-06T18:16:38.821Z,74.64
2023-03-06T18:19:05.477Z,74.96
2023-03-06T18:21:32.089Z,75.10
2023-03-06T18:23:58.769Z,75.30
2023-03-06T18:26:28.167Z,75.06
2023-03-06T18:28:58.553Z,75.53
2023-03-06T18:31:31.734Z,75.47
2023-03-06T18:34:02.034Z,74.25
2023-03-06T18:36:31.870Z,73.07
2023-03-06T18:38:59.564Z,73.18
2023-03-06T18:41:26.436Z,73.01
2023-03-06T18:43:55.413Z,72.37
2023-03-06T18:46:23.298Z,71.98
2023-03-06T18:48:50.398Z,72.00
2023-03-06T18:51:17.878Z,71.40
2023-03-06T18:53:44.720Z,71.56
2023-03-06T18:56:17.882Z,71.47
2023-03-06T18:58:45.056Z,72.18
2023-03-06T19:01:12.197Z,72.14
2023-03-06T19:03:38.864Z,71.73
2023-03-06T19:06:07.907Z,72.10
2023-03-06T19:08:35.944Z,72.25
2023-03-06T19:11:05.825Z,72.26
2023-03-06T19:13:32.466Z,72.27
2023-03-06T19:15:59.406Z,72.45
2023-03-06T19:18:30.737Z,71.93
2023-03-06T19:21:17.433Z,71.79
2023-03-06T19:23:44.203Z,71.60
2023-03-06T19:26:12.284Z,71.93
2023-03-06T19:28:41.158Z,72.23
2023-03-06T19:31:10.945Z,72.12
2023-03-06T19:33:40.239Z,72.05
2023-03-06T19:36:10.540Z,72.53
2023-03-06T19:38:38.535Z,72.33
2023-03-06T19:41:06.512Z,73.82
2023-03-06T19:43:33.650Z,74.23
2023-03-06T19:46:01.702Z,74.17
2023-03-06T19:48:32.851Z,74.74
2023-03-06T19:51:04.813Z,74.66
2023-03-06T19:53:33.357Z,74.76
2023-03-06T19:56:09.203Z,74.10
2023-03-06T19:58:37.076Z,74.12
2023-03-06T20:01:06.882Z,74.24
2023-03-06T20:03:34.536Z,73.91
2023-03-06T20:06:03.216Z,73.52
2023-03-06T20:08:30.376Z,73.45
2023-03-06T20:10:57.127Z,73.59
2023-03-06T20:13:24.481Z,73.83
2023-03-06T20:15:52.423Z,75.15
2023-03-06T20:18:19.631Z,74.76
2023-03-06T20:20:57.313Z,74.38
2023-03-06T20:23:24.499Z,75.17
2023-03-06T20:25:51.391Z,74.97
2023-03-06T20:28:18.932Z,75.05
2023-03-06T20:30:49.750Z,75.15
2023-03-06T20:33:17.109Z,75.19
2023-03-06T20:35:44.709Z,75.29
2023-03-06T20:38:12.344Z,75.07
2023-03-06T20:40:41.328Z,75.14
2023-03-06T20:43:09.113Z,75.34
2023-03-06T20:45:36.401Z,75.51
2023-03-06T20:48:03.764Z,75.71
2023-03-06T20:50:31.070Z,75.94
2023-03-06T20:52:59.145Z,75.92
2023-03-06T20:55:25.869Z,75.55
2023-03-06T20:57:53.859Z,75.80
2023-03-06T21:00:21.567Z,76.04
2023-03-06T21:02:48.423Z,76.07
2023-03-06T21:05:15.839Z,76.18
2023-03-06T21:07:42.781Z,75.86
2023-03-06T21:10:12.069Z,75.98
2023-03-06T21:12:38.892Z,75.91
2023-03-06T21:15:06.505Z,76.31
2023-03-06T21:17:34.162Z,76.37
2023-03-06T21:20:01.032Z,76.31
2023-03-06T21:22:30.260Z,76.46
2023-03-06T21:24:58.584Z,76.86
2023-03-06T21:27:26.385Z,76.69
2023-03-06T21:29:54.009Z,76.78
2023-03-06T21:32:22.085Z,76.91
2023-03-06T21:34:49.199Z,77.29
2023-03-06T21:37:17.069Z,76.96
2023-03-06T21:39:44.585Z,76.81
2023-03-06T21:42:12.043Z,76.89
2023-03-06T21:44:39.732Z,77.14
2023-03-06T21:47:06.671Z,77.14
2023-03-06T21:49:33.285Z,78.42
2023-03-06T21:51:59.926Z,78.23
2023-03-06T21:54:27.117Z,79.20
2023-03-06T21:56:53.773Z,79.06
2023-03-06T21:59:20.374Z,78.45
2023-03-06T22:01:47.639Z,78.05
2023-03-06T22:04:14.506Z,77.02
2023-03-06T22:06:41.235Z,76.73
2023-03-06T22:09:08.562Z,76.73
2023-03-06T22:11:37.281Z,77.21
2023-03-06T22:14:05.680Z,77.06
2023-03-06T22:16:32.794Z,77.35
2023-03-06T22:19:00.596Z,76.61
2023-03-06T22:21:27.292Z,76.79
2023-03-06T22:23:57.779Z,76.89
2023-03-06T22:26:26.076Z,77.41
2023-03-06T22:28:53.324Z,77.18
2023-03-06T22:31:25.736Z,76.79
2023-03-06T22:33:53.722Z,76.69
2023-03-06T22:36:21.094Z,76.78
2023-03-06T22:38:48.706Z,76.79
2023-03-06T22:41:17.294Z,77.12
2023-03-06T22:43:44.005Z,76.92
2023-03-06T22:46:13.587Z,76.95
2023-03-06T22:48:40.879Z,77.08
2023-03-06T22:51:09.388Z,77.07
2023-03-06T22:53:36.779Z,76.72
2023-03-06T22:56:05.333Z,77.12
2023-03-06T22:58:36.932Z,77.21
2023-03-06T23:01:04.912Z,77.48
2023-03-06T23:03:31.626Z,77.56
2023-03-06T23:05:58.323Z,79.21
2023-03-06T23:08:24.968Z,78.00
2023-03-06T23:10:51.569Z,77.78
2023-03-06T23:13:18.160Z,77.42
2023-03-06T23:15:44.750Z,78.14
2023-03-06T23:18:11.351Z,77.55
2023-03-06T23:20:42.577Z,77.82
2023-03-06T23:23:09.822Z,78.87
2023-03-06T23:25:36.861Z,78.47
2023-03-06T23:28:03.696Z,78.07
2023-03-06T23:30:30.314Z,77.21
2023-03-06T23:32:57.051Z,77.05
2023-03-06T23:35:23.631Z,76.56
2023-03-06T23:37:50.323Z,76.54
2023-03-06T23:40:17.149Z,76.85
2023-03-06T23:42:43.745Z,76.75
2023-03-06T23:45:10.908Z,76.47
2023-03-06T23:47:37.522Z,76.44
2023-03-06T23:50:04.457Z,76.46
2023-03-06T23:52:31.118Z,77.47
2023-03-06T23:54:57.710Z,77.02
2023-03-06T23:57:24.314Z,76.77
2023-03-06T23:59:50.938Z,77.05
